Airfield :
LOGIN :

Register | Disclaimer

   EN    FR    IT 

 










Legend :    VFR   Marginal VFR   IFR   Intensive IFR   Very Intensive IFR
Visi :
Ceiling :
>= 8 km
>= 3000ft
5 to 8 km
1000 to 3000 ft
1500m to 5 km
500 to 1000 ft
800 to 1500m
200 to 500 ft
< 800m
< 200 ft
Symbols :   Thunderstorms  Fog  Heavy snow  Heavy precipitations  Wind > 20 kt
SIGMETs :     Misc.  Thunderstorms  Icing  Turbulence  Mountain Waves  Volcanic Ashes






- Airport Elevation : 26 ft
- IATA code : GLA


EGPF - Glasgow

CURRENT METAR :
  • 292020Z AUTO 24022KT 8000 -RA BKN015/// OVC028/// //////TCU 09/08 Q0996

EXPIRED METARs :
  • 291950Z AUTO 24022KT 9999 -RA OVC015/// //////TCU 09/08 Q0996
  • 291920Z AUTO 24022G35KT 9999 -RA OVC015/// //////TCU 09/07 Q0995
  • 291850Z AUTO 24022G32KT 7000 -RA BKN015/// OVC020/// //////TCU 09/08 Q0995
  • 291820Z AUTO 24024G36KT 9999 -RA OVC016/// //////TCU 09/07 Q0995
  • 291750Z AUTO 24021KT 4900 -RADZ BKN013/// OVC039/// //////TCU 09/08 Q0995

TAF TAF EGPF
Valid from the 29 at 18:00 until the 30 at 18:00 UTC


291701Z 2918/3018 23016KT 9999 SCT018
TEMPO 2918/3001 25023G35KT 6000 RA BKN012
PROB40
TEMPO 2918/2922 3000 RADZ +RA BKN007
BECMG 3001/3003 22006KT
PROB30
TEMPO 3001/3003 BKN012
TEMPO 3008/3014 20022G32KT 6000 RA BKN010
BECMG 3009/3012 20016KT
PROB40
TEMPO 3009/3012 4000 RADZ BR BKN005
BECMG 3014/3016 26018KT
TEMPO 3014/3018 26023G36KT
ATIS : +44 141 887 7449



MET'MAP, your aeronautical weather chart ! - Copyright ORBIFLY December 2007 - Disclaimer

ORBIFLY MET'MAP TEAM :

Programming & Development : Alexandra Zaïnal
Concept & original design : Baudouin d'Aumeries
Assistance for programming : Marc-Olivier Méhu
Technical & hardware support : Manuel Goepfert

Contact : metmap@orbifly.com




SOURCES & CREDITS :

   NOAA